sensor_id;sensor_type;location;lat;lon;timestamp;pressure;altitude;pressure_sealevel;temperature;humidity
65394;BME280;52002;49.760;6.512;2023-03-18T00:00:49;99378.27;;;20.78;46.08
65394;BME280;52002;49.760;6.512;2023-03-18T00:03:15;99380.68;;;20.76;45.98
65394;BME280;52002;49.760;6.512;2023-03-18T00:05:42;99384.48;;;20.74;46.24
65394;BME280;52002;49.760;6.512;2023-03-18T00:08:08;99384.02;;;20.74;46.39
65394;BME280;52002;49.760;6.512;2023-03-18T00:10:34;99385.30;;;20.74;46.35
65394;BME280;52002;49.760;6.512;2023-03-18T00:13:00;99381.98;;;20.72;46.27
65394;BME280;52002;49.760;6.512;2023-03-18T00:15:26;99387.20;;;20.71;46.35
65394;BME280;52002;49.760;6.512;2023-03-18T00:17:53;99386.38;;;20.69;46.53
65394;BME280;52002;49.760;6.512;2023-03-18T00:20:18;99389.30;;;20.67;46.42
65394;BME280;52002;49.760;6.512;2023-03-18T00:22:53;99388.88;;;20.65;46.38
65394;BME280;52002;49.760;6.512;2023-03-18T00:25:19;99388.30;;;20.64;46.52
65394;BME280;52002;49.760;6.512;2023-03-18T00:27:45;99391.51;;;20.63;46.59
65394;BME280;52002;49.760;6.512;2023-03-18T00:30:11;99395.19;;;20.63;46.53
65394;BME280;52002;49.760;6.512;2023-03-18T00:32:37;99398.69;;;20.62;46.30
65394;BME280;52002;49.760;6.512;2023-03-18T00:35:04;99401.89;;;20.48;46.17
65394;BME280;52002;49.760;6.512;2023-03-18T00:37:30;99403.41;;;19.80;46.35
65394;BME280;52002;49.760;6.512;2023-03-18T00:40:07;99407.64;;;18.81;47.07
65394;BME280;52002;49.760;6.512;2023-03-18T00:42:36;99404.86;;;17.97;48.19
65394;BME280;52002;49.760;6.512;2023-03-18T00:45:12;99406.41;;;17.34;49.12
65394;BME280;52002;49.760;6.512;2023-03-18T00:47:38;99408.95;;;17.27;49.50
65394;BME280;52002;49.760;6.512;2023-03-18T00:50:05;99413.00;;;17.59;49.65
65394;BME280;52002;49.760;6.512;2023-03-18T00:52:31;99416.92;;;17.89;49.56
65394;BME280;52002;49.760;6.512;2023-03-18T00:54:58;99421.45;;;18.15;49.45
65394;BME280;52002;49.760;6.512;2023-03-18T00:57:25;99421.98;;;18.40;49.30
65394;BME280;52002;49.760;6.512;2023-03-18T00:59:51;99420.39;;;18.62;49.10
65394;BME280;52002;49.760;6.512;2023-03-18T01:02:17;99416.94;;;18.82;48.98
65394;BME280;52002;49.760;6.512;2023-03-18T01:04:43;99415.57;;;18.99;48.72
65394;BME280;52002;49.760;6.512;2023-03-18T01:07:09;99418.49;;;19.14;48.60
65394;BME280;52002;49.760;6.512;2023-03-18T01:09:37;99421.72;;;19.30;48.44
65394;BME280;52002;49.760;6.512;2023-03-18T01:12:06;99426.73;;;19.42;48.22
65394;BME280;52002;49.760;6.512;2023-03-18T01:14:33;99428.83;;;19.52;48.04
65394;BME280;52002;49.760;6.512;2023-03-18T01:17:00;99426.36;;;19.63;47.95
65394;BME280;52002;49.760;6.512;2023-03-18T01:19:26;99420.59;;;19.70;47.76
65394;BME280;52002;49.760;6.512;2023-03-18T01:21:53;99428.70;;;19.77;47.64
65394;BME280;52002;49.760;6.512;2023-03-18T01:24:19;99421.02;;;19.81;47.50
65394;BME280;52002;49.760;6.512;2023-03-18T01:26:44;99420.20;;;19.86;47.51
65394;BME280;52002;49.760;6.512;2023-03-18T01:29:09;99414.38;;;19.91;47.47
65394;BME280;52002;49.760;6.512;2023-03-18T01:31:35;99411.24;;;19.94;47.43
65394;BME280;52002;49.760;6.512;2023-03-18T01:34:02;99410.45;;;19.96;47.30
65394;BME280;52002;49.760;6.512;2023-03-18T01:36:28;99414.73;;;19.99;47.28
65394;BME280;52002;49.760;6.512;2023-03-18T01:38:54;99410.05;;;20.03;47.26
65394;BME280;52002;49.760;6.512;2023-03-18T01:41:23;99408.37;;;20.06;47.19
65394;BME280;52002;49.760;6.512;2023-03-18T01:43:51;99403.85;;;20.08;47.09
65394;BME280;52002;49.760;6.512;2023-03-18T01:48:55;99408.73;;;20.13;47.08
65394;BME280;52002;49.760;6.512;2023-03-18T01:51:21;99402.66;;;20.15;47.07
65394;BME280;52002;49.760;6.512;2023-03-18T01:53:49;99400.52;;;20.16;47.11
65394;BME280;52002;49.760;6.512;2023-03-18T01:56:15;99400.98;;;20.17;46.99
65394;BME280;52002;49.760;6.512;2023-03-18T01:58:44;99407.36;;;20.20;46.99
65394;BME280;52002;49.760;6.512;2023-03-18T02:03:45;99404.94;;;20.20;46.97
65394;BME280;52002;49.760;6.512;2023-03-18T02:06:12;99409.06;;;20.21;46.99
65394;BME280;52002;49.760;6.512;2023-03-18T02:08:38;99404.73;;;20.20;46.92
65394;BME280;52002;49.760;6.512;2023-03-18T02:11:06;99405.19;;;20.21;46.94
65394;BME280;52002;49.760;6.512;2023-03-18T02:13:38;99403.27;;;20.22;46.94
65394;BME280;52002;49.760;6.512;2023-03-18T02:16:10;99395.88;;;20.23;46.94
65394;BME280;52002;49.760;6.512;2023-03-18T02:18:46;99395.05;;;20.24;46.92
65394;BME280;52002;49.760;6.512;2023-03-18T02:27:23;99409.42;;;20.28;46.94
65394;BME280;52002;49.760;6.512;2023-03-18T02:29:54;99405.54;;;20.29;46.84
65394;BME280;52002;49.760;6.512;2023-03-18T02:32:25;99402.45;;;20.29;46.81
65394;BME280;52002;49.760;6.512;2023-03-18T02:34:51;99398.54;;;20.29;46.76
65394;BME280;52002;49.760;6.512;2023-03-18T02:37:17;99402.58;;;20.28;46.83
65394;BME280;52002;49.760;6.512;2023-03-18T02:39:43;99399.62;;;20.29;46.87
65394;BME280;52002;49.760;6.512;2023-03-18T02:42:11;99406.59;;;20.28;46.85
65394;BME280;52002;49.760;6.512;2023-03-18T02:44:43;99403.08;;;20.27;46.79
65394;BME280;52002;49.760;6.512;2023-03-18T02:47:17;99401.83;;;20.26;46.77
65394;BME280;52002;49.760;6.512;2023-03-18T02:49:45;99407.58;;;20.28;46.89
65394;BME280;52002;49.760;6.512;2023-03-18T02:52:10;99409.41;;;20.29;46.84
65394;BME280;52002;49.760;6.512;2023-03-18T02:54:36;99409.33;;;20.30;46.82
65394;BME280;52002;49.760;6.512;2023-03-18T02:57:01;99407.16;;;20.31;46.81
65394;BME280;52002;49.760;6.512;2023-03-18T02:59:27;99408.97;;;20.32;46.81
65394;BME280;52002;49.760;6.512;2023-03-18T03:01:53;99414.67;;;20.33;46.80
65394;BME280;52002;49.760;6.512;2023-03-18T03:04:21;99418.52;;;20.33;46.82
65394;BME280;52002;49.760;6.512;2023-03-18T03:06:48;99424.54;;;20.33;46.81
65394;BME280;52002;49.760;6.512;2023-03-18T03:09:15;99430.28;;;20.33;46.75
65394;BME280;52002;49.760;6.512;2023-03-18T03:11:42;99433.20;;;20.32;46.74
65394;BME280;52002;49.760;6.512;2023-03-18T03:14:09;99440.55;;;20.32;46.77
65394;BME280;52002;49.760;6.512;2023-03-18T03:16:35;99445.14;;;20.31;46.81
65394;BME280;52002;49.760;6.512;2023-03-18T03:19:02;99447.81;;;20.31;46.76
65394;BME280;52002;49.760;6.512;2023-03-18T03:21:28;99446.39;;;20.31;46.86
65394;BME280;52002;49.760;6.512;2023-03-18T03:23:55;99444.60;;;20.31;46.87
65394;BME280;52002;49.760;6.512;2023-03-18T03:26:21;99448.92;;;20.32;46.75
65394;BME280;52002;49.760;6.512;2023-03-18T03:28:46;99449.83;;;20.34;46.76
65394;BME280;52002;49.760;6.512;2023-03-18T03:31:12;99449.70;;;20.35;46.78
65394;BME280;52002;49.760;6.512;2023-03-18T03:33:39;99451.46;;;20.34;46.77
65394;BME280;52002;49.760;6.512;2023-03-18T03:36:15;99455.73;;;20.34;46.85
65394;BME280;52002;49.760;6.512;2023-03-18T03:38:42;99457.28;;;20.35;46.80
65394;BME280;52002;49.760;6.512;2023-03-18T03:41:09;99457.04;;;20.35;46.79
65394;BME280;52002;49.760;6.512;2023-03-18T03:43:37;99456.33;;;20.34;46.78
65394;BME280;52002;49.760;6.512;2023-03-18T03:46:03;99456.50;;;20.34;46.71
65394;BME280;52002;49.760;6.512;2023-03-18T03:48:28;99458.72;;;20.34;46.86
65394;BME280;52002;49.760;6.512;2023-03-18T03:50:54;99462.96;;;20.34;46.68
65394;BME280;52002;49.760;6.512;2023-03-18T03:53:21;99466.13;;;20.33;46.81
65394;BME280;52002;49.760;6.512;2023-03-18T03:55:47;99465.82;;;20.32;46.82
65394;BME280;52002;49.760;6.512;2023-03-18T03:58:12;99470.63;;;20.31;46.90
65394;BME280;52002;49.760;6.512;2023-03-18T04:00:38;99477.46;;;20.31;46.83
65394;BME280;52002;49.760;6.512;2023-03-18T04:03:04;99480.22;;;20.30;46.89
65394;BME280;52002;49.760;6.512;2023-03-18T04:05:30;99483.67;;;20.31;46.86
65394;BME280;52002;49.760;6.512;2023-03-18T04:07:55;99486.21;;;20.32;46.81
65394;BME280;52002;49.760;6.512;2023-03-18T04:10:24;99490.90;;;20.33;46.90
65394;BME280;52002;49.760;6.512;2023-03-18T04:12:50;99485.31;;;20.33;46.84
65394;BME280;52002;49.760;6.512;2023-03-18T04:15:17;99484.56;;;20.33;46.85
65394;BME280;52002;49.760;6.512;2023-03-18T04:17:44;99488.58;;;20.35;46.87
65394;BME280;52002;49.760;6.512;2023-03-18T04:20:11;99493.08;;;20.35;46.81
65394;BME280;52002;49.760;6.512;2023-03-18T04:22:36;99492.52;;;20.35;46.87
65394;BME280;52002;49.760;6.512;2023-03-18T04:25:03;99494.74;;;20.34;46.91
65394;BME280;52002;49.760;6.512;2023-03-18T04:27:29;99495.53;;;20.34;46.86
65394;BME280;52002;49.760;6.512;2023-03-18T04:29:54;99492.48;;;20.34;46.79
65394;BME280;52002;49.760;6.512;2023-03-18T04:32:20;99496.54;;;20.33;46.84
65394;BME280;52002;49.760;6.512;2023-03-18T04:34:46;99493.14;;;20.31;46.84
65394;BME280;52002;49.760;6.512;2023-03-18T04:37:11;99496.69;;;20.31;46.88
65394;BME280;52002;49.760;6.512;2023-03-18T04:39:39;99493.77;;;20.31;46.85
65394;BME280;52002;49.760;6.512;2023-03-18T04:42:06;99493.27;;;20.32;46.91
65394;BME280;52002;49.760;6.512;2023-03-18T04:44:32;99496.03;;;20.33;46.91
65394;BME280;52002;49.760;6.512;2023-03-18T04:46:57;99497.20;;;20.34;46.97
65394;BME280;52002;49.760;6.512;2023-03-18T04:49:24;99495.36;;;20.34;46.89
65394;BME280;52002;49.760;6.512;2023-03-18T04:51:49;99491.61;;;20.35;46.83
65394;BME280;52002;49.760;6.512;2023-03-18T04:54:14;99486.61;;;20.34;46.90
65394;BME280;52002;49.760;6.512;2023-03-18T04:56:40;99488.86;;;20.34;46.88
65394;BME280;52002;49.760;6.512;2023-03-18T04:59:05;99488.20;;;20.33;46.88
65394;BME280;52002;49.760;6.512;2023-03-18T05:01:31;99488.61;;;20.34;46.90
65394;BME280;52002;49.760;6.512;2023-03-18T05:03:56;99489.40;;;20.34;46.83
65394;BME280;52002;49.760;6.512;2023-03-18T05:06:27;99487.48;;;20.33;46.92
65394;BME280;52002;49.760;6.512;2023-03-18T05:08:53;99484.70;;;20.32;46.85
65394;BME280;52002;49.760;6.512;2023-03-18T05:11:19;99484.84;;;20.31;46.75
65394;BME280;52002;49.760;6.512;2023-03-18T05:13:45;99487.80;;;20.31;46.90
65394;BME280;52002;49.760;6.512;2023-03-18T05:16:11;99485.01;;;20.32;47.02
65394;BME280;52002;49.760;6.512;2023-03-18T05:18:37;99486.59;;;20.32;46.94
65394;BME280;52002;49.760;6.512;2023-03-18T05:21:03;99486.89;;;20.34;46.91
65394;BME280;52002;49.760;6.512;2023-03-18T05:23:30;99487.66;;;20.33;46.99
65394;BME280;52002;49.760;6.512;2023-03-18T05:25:55;99484.36;;;20.34;46.97
65394;BME280;52002;49.760;6.512;2023-03-18T05:28:21;99484.10;;;20.34;46.88
65394;BME280;52002;49.760;6.512;2023-03-18T05:30:46;99484.19;;;20.35;46.80
65394;BME280;52002;49.760;6.512;2023-03-18T05:33:12;99484.95;;;20.35;46.96
65394;BME280;52002;49.760;6.512;2023-03-18T05:35:38;99487.56;;;20.34;46.84
65394;BME280;52002;49.760;6.512;2023-03-18T05:38:04;99487.58;;;20.34;46.87
65394;BME280;52002;49.760;6.512;2023-03-18T05:40:31;99489.23;;;20.34;46.85
65394;BME280;52002;49.760;6.512;2023-03-18T05:42:57;99484.70;;;20.32;46.93
65394;BME280;52002;49.760;6.512;2023-03-18T05:45:23;99481.05;;;20.31;46.85
65394;BME280;52002;49.760;6.512;2023-03-18T05:47:49;99484.88;;;20.31;47.03
65394;BME280;52002;49.760;6.512;2023-03-18T05:50:27;99484.09;;;20.32;46.92
65394;BME280;52002;49.760;6.512;2023-03-18T05:52:53;99488.44;;;20.33;46.92
65394;BME280;52002;49.760;6.512;2023-03-18T05:55:18;99491.80;;;20.34;47.01
65394;BME280;52002;49.760;6.512;2023-03-18T05:57:44;99499.50;;;20.34;46.96
65394;BME280;52002;49.760;6.512;2023-03-18T06:00:11;99499.70;;;20.35;46.96
65394;BME280;52002;49.760;6.512;2023-03-18T06:02:37;99501.25;;;20.36;46.99
65394;BME280;52002;49.760;6.512;2023-03-18T06:05:03;99500.91;;;20.36;47.06
65394;BME280;52002;49.760;6.512;2023-03-18T06:07:29;99497.02;;;20.35;46.97
65394;BME280;52002;49.760;6.512;2023-03-18T06:09:54;99505.29;;;20.35;47.00
65394;BME280;52002;49.760;6.512;2023-03-18T06:12:19;99505.20;;;20.34;46.94
65394;BME280;52002;49.760;6.512;2023-03-18T06:14:48;99510.42;;;20.33;46.95
65394;BME280;52002;49.760;6.512;2023-03-18T06:17:13;99509.92;;;20.33;47.04
65394;BME280;52002;49.760;6.512;2023-03-18T06:19:39;99512.73;;;20.32;47.03
65394;BME280;52002;49.760;6.512;2023-03-18T06:22:05;99514.30;;;20.33;46.96
65394;BME280;52002;49.760;6.512;2023-03-18T06:24:30;99512.83;;;20.32;46.99
65394;BME280;52002;49.760;6.512;2023-03-18T06:26:55;99518.61;;;20.33;47.00
65394;BME280;52002;49.760;6.512;2023-03-18T06:29:21;99518.46;;;20.34;46.95
65394;BME280;52002;49.760;6.512;2023-03-18T06:31:46;99523.43;;;20.35;46.98
65394;BME280;52002;49.760;6.512;2023-03-18T06:34:12;99522.18;;;20.35;46.94
65394;BME280;52002;49.760;6.512;2023-03-18T06:36:37;99523.52;;;20.35;46.93
65394;BME280;52002;49.760;6.512;2023-03-18T06:39:02;99523.97;;;20.36;46.99
65394;BME280;52002;49.760;6.512;2023-03-18T06:41:28;99525.98;;;20.36;46.97
65394;BME280;52002;49.760;6.512;2023-03-18T06:43:54;99526.23;;;20.36;46.93
65394;BME280;52002;49.760;6.512;2023-03-18T06:46:19;99528.68;;;20.35;46.98
65394;BME280;52002;49.760;6.512;2023-03-18T06:48:44;99529.93;;;20.35;46.98
65394;BME280;52002;49.760;6.512;2023-03-18T06:51:10;99533.08;;;20.34;46.98
65394;BME280;52002;49.760;6.512;2023-03-18T06:53:36;99532.85;;;20.33;47.04
65394;BME280;52002;49.760;6.512;2023-03-18T06:56:03;99538.16;;;20.33;46.96
65394;BME280;52002;49.760;6.512;2023-03-18T06:58:30;99539.51;;;20.32;47.01
65394;BME280;52002;49.760;6.512;2023-03-18T07:00:56;99545.16;;;20.33;47.05
65394;BME280;52002;49.760;6.512;2023-03-18T07:03:22;99544.54;;;20.34;47.09
65394;BME280;52002;49.760;6.512;2023-03-18T07:05:50;99542.23;;;20.35;47.11
65394;BME280;52002;49.760;6.512;2023-03-18T07:08:16;99544.11;;;20.35;46.97
65394;BME280;52002;49.760;6.512;2023-03-18T07:10:41;99547.33;;;20.36;47.00
65394;BME280;52002;49.760;6.512;2023-03-18T07:13:09;99544.54;;;20.35;47.06
65394;BME280;52002;49.760;6.512;2023-03-18T07:15:34;99548.36;;;20.36;47.03
65394;BME280;52002;49.760;6.512;2023-03-18T07:18:00;99545.25;;;20.36;47.06
65394;BME280;52002;49.760;6.512;2023-03-18T07:20:27;99545.87;;;20.36;47.01
65394;BME280;52002;49.760;6.512;2023-03-18T07:22:53;99550.70;;;20.36;46.97
65394;BME280;52002;49.760;6.512;2023-03-18T07:25:19;99551.58;;;20.35;47.05
65394;BME280;52002;49.760;6.512;2023-03-18T07:27:45;99553.50;;;20.34;47.08
65394;BME280;52002;49.760;6.512;2023-03-18T07:30:11;99555.30;;;20.34;47.05
65394;BME280;52002;49.760;6.512;2023-03-18T07:32:38;99557.27;;;20.33;47.07
65394;BME280;52002;49.760;6.512;2023-03-18T07:35:04;99556.12;;;20.33;47.05
65394;BME280;52002;49.760;6.512;2023-03-18T07:37:31;99561.25;;;20.34;46.99
65394;BME280;52002;49.760;6.512;2023-03-18T07:39:57;99566.67;;;20.36;47.15
65394;BME280;52002;49.760;6.512;2023-03-18T07:42:22;99570.98;;;20.37;47.07
65394;BME280;52002;49.760;6.512;2023-03-18T07:44:48;99572.10;;;20.38;47.07
65394;BME280;52002;49.760;6.512;2023-03-18T07:47:13;99572.48;;;20.38;47.08
65394;BME280;52002;49.760;6.512;2023-03-18T07:49:39;99577.14;;;20.40;47.05
65394;BME280;52002;49.760;6.512;2023-03-18T07:52:06;99574.59;;;20.40;47.04
65394;BME280;52002;49.760;6.512;2023-03-18T07:54:33;99574.97;;;20.40;46.95
65394;BME280;52002;49.760;6.512;2023-03-18T07:56:59;99575.55;;;20.39;47.03
65394;BME280;52002;49.760;6.512;2023-03-18T07:59:24;99575.52;;;20.38;47.07
65394;BME280;52002;49.760;6.512;2023-03-18T08:01:49;99568.30;;;20.38;47.13
65394;BME280;52002;49.760;6.512;2023-03-18T08:04:15;99570.55;;;20.38;47.05
65394;BME280;52002;49.760;6.512;2023-03-18T08:06:41;99568.80;;;20.37;46.82
65394;BME280;52002;49.760;6.512;2023-03-18T08:09:06;99569.55;;;20.37;46.53
65394;BME280;52002;49.760;6.512;2023-03-18T08:11:33;99572.09;;;20.37;46.45
65394;BME280;52002;49.760;6.512;2023-03-18T08:13:59;99568.89;;;20.37;46.21
65394;BME280;52002;49.760;6.512;2023-03-18T08:16:25;99569.68;;;20.36;45.92
65394;BME280;52002;49.760;6.512;2023-03-18T08:18:51;99573.93;;;20.35;45.98
65394;BME280;52002;49.760;6.512;2023-03-18T08:21:17;99571.66;;;20.30;45.85
65394;BME280;52002;49.760;6.512;2023-03-18T08:23:43;99570.63;;;19.78;45.88
65394;BME280;52002;49.760;6.512;2023-03-18T08:26:09;99572.06;;;19.06;46.51
65394;BME280;52002;49.760;6.512;2023-03-18T08:28:35;99574.63;;;18.61;47.04
65394;BME280;52002;49.760;6.512;2023-03-18T08:31:01;99573.52;;;18.26;47.32
65394;BME280;52002;49.760;6.512;2023-03-18T08:33:28;99575.06;;;18.15;47.37
65394;BME280;52002;49.760;6.512;2023-03-18T08:35:54;99576.50;;;18.38;47.65
65394;BME280;52002;49.760;6.512;2023-03-18T08:38:21;99579.17;;;18.61;47.85
65394;BME280;52002;49.760;6.512;2023-03-18T08:40:48;99584.54;;;18.79;47.86
65394;BME280;52002;49.760;6.512;2023-03-18T08:43:13;99584.78;;;18.92;47.58
65394;BME280;52002;49.760;6.512;2023-03-18T08:45:39;99584.80;;;19.05;47.55
65394;BME280;52002;49.760;6.512;2023-03-18T08:48:05;99583.34;;;19.18;47.65
65394;BME280;52002;49.760;6.512;2023-03-18T08:50:30;99579.99;;;19.28;47.64
65394;BME280;52002;49.760;6.512;2023-03-18T08:52:57;99580.07;;;19.38;47.59
65394;BME280;52002;49.760;6.512;2023-03-18T08:55:28;99580.04;;;19.47;47.55
65394;BME280;52002;49.760;6.512;2023-03-18T08:57:54;99584.30;;;19.54;47.56
65394;BME280;52002;49.760;6.512;2023-03-18T09:00:20;99583.10;;;19.63;47.47
65394;BME280;52002;49.760;6.512;2023-03-18T09:02:46;99578.35;;;19.69;47.37
65394;BME280;52002;49.760;6.512;2023-03-18T09:05:12;99582.20;;;19.75;47.32
65394;BME280;52002;49.760;6.512;2023-03-18T09:07:37;99581.79;;;19.81;47.36
65394;BME280;52002;49.760;6.512;2023-03-18T09:10:03;99581.00;;;19.85;47.27
65394;BME280;52002;49.760;6.512;2023-03-18T09:12:30;99586.06;;;19.90;47.35
65394;BME280;52002;49.760;6.512;2023-03-18T09:14:55;99585.16;;;19.94;47.18
65394;BME280;52002;49.760;6.512;2023-03-18T09:17:21;99574.90;;;19.98;47.23
65394;BME280;52002;49.760;6.512;2023-03-18T09:19:47;99571.77;;;20.01;47.19
65394;BME280;52002;49.760;6.512;2023-03-18T09:22:13;99570.27;;;20.01;47.11
65394;BME280;52002;49.760;6.512;2023-03-18T09:24:38;99573.36;;;20.04;47.19
65394;BME280;52002;49.760;6.512;2023-03-18T09:27:04;99571.98;;;20.06;47.20
65394;BME280;52002;49.760;6.512;2023-03-18T09:29:30;99570.02;;;20.07;47.13
65394;BME280;52002;49.760;6.512;2023-03-18T09:31:56;99571.67;;;20.08;47.16
65394;BME280;52002;49.760;6.512;2023-03-18T09:34:22;99571.10;;;20.08;47.21
65394;BME280;52002;49.760;6.512;2023-03-18T09:36:47;99572.23;;;20.09;47.13
65394;BME280;52002;49.760;6.512;2023-03-18T09:39:16;99575.35;;;20.10;46.75
65394;BME280;52002;49.760;6.512;2023-03-18T09:44:34;99573.48;;;20.11;46.33
65394;BME280;52002;49.760;6.512;2023-03-18T09:55:41;99589.05;;;20.19;46.95
65394;BME280;52002;49.760;6.512;2023-03-18T09:58:24;99591.77;;;20.20;46.90
65394;BME280;52002;49.760;6.512;2023-03-18T10:00:56;99589.67;;;20.20;46.82
65394;BME280;52002;49.760;6.512;2023-03-18T10:03:33;99589.06;;;20.18;47.01
65394;BME280;52002;49.760;6.512;2023-03-18T10:06:22;99588.17;;;20.18;46.92
65394;BME280;52002;49.760;6.512;2023-03-18T10:09:08;99590.96;;;20.18;46.93
65394;BME280;52002;49.760;6.512;2023-03-18T10:11:44;99592.31;;;20.17;46.90
65394;BME280;52002;49.760;6.512;2023-03-18T10:19:19;99597.64;;;20.16;46.95
65394;BME280;52002;49.760;6.512;2023-03-18T10:24:26;99595.85;;;20.17;46.99
65394;BME280;52002;49.760;6.512;2023-03-18T10:32:39;99598.92;;;20.21;46.81
65394;BME280;52002;49.760;6.512;2023-03-18T10:38:43;99604.98;;;20.21;46.82
65394;BME280;52002;49.760;6.512;2023-03-18T10:40:49;99605.23;;;20.22;46.81
65394;BME280;52002;49.760;6.512;2023-03-18T10:43:16;99602.08;;;20.21;46.84
65394;BME280;52002;49.760;6.512;2023-03-18T10:45:45;99602.27;;;20.21;46.76
65394;BME280;52002;49.760;6.512;2023-03-18T10:48:34;99604.90;;;20.21;46.81
65394;BME280;52002;49.760;6.512;2023-03-18T10:51:14;99606.23;;;20.20;46.82
65394;BME280;52002;49.760;6.512;2023-03-18T10:53:48;99607.65;;;20.19;46.92
65394;BME280;52002;49.760;6.512;2023-03-18T10:56:18;99605.77;;;20.18;46.87
65394;BME280;52002;49.760;6.512;2023-03-18T10:58:43;99599.52;;;20.17;46.94
65394;BME280;52002;49.760;6.512;2023-03-18T11:01:13;99597.60;;;20.17;47.02
65394;BME280;52002;49.760;6.512;2023-03-18T11:03:51;99599.82;;;20.15;47.04
65394;BME280;52002;49.760;6.512;2023-03-18T11:06:25;99601.11;;;20.15;47.00
65394;BME280;52002;49.760;6.512;2023-03-18T11:09:05;99597.81;;;20.15;46.99
65394;BME280;52002;49.760;6.512;2023-03-18T11:11:34;99604.66;;;20.15;47.07
65394;BME280;52002;49.760;6.512;2023-03-18T11:14:02;99604.03;;;20.15;47.13
65394;BME280;52002;49.760;6.512;2023-03-18T11:16:46;99603.98;;;20.15;47.11
65394;BME280;52002;49.760;6.512;2023-03-18T11:24:37;99605.69;;;20.17;46.96
65394;BME280;52002;49.760;6.512;2023-03-18T11:27:25;99607.52;;;20.17;47.08
65394;BME280;52002;49.760;6.512;2023-03-18T11:29:59;99605.44;;;20.17;46.92
65394;BME280;52002;49.760;6.512;2023-03-18T11:32:32;99602.02;;;20.17;46.91
65394;BME280;52002;49.760;6.512;2023-03-18T11:35:04;99597.73;;;20.17;46.99
65394;BME280;52002;49.760;6.512;2023-03-18T11:37:37;99591.06;;;20.17;47.00
65394;BME280;52002;49.760;6.512;2023-03-18T11:42:39;99595.92;;;20.17;46.96
65394;BME280;52002;49.760;6.512;2023-03-18T11:45:33;99592.55;;;20.16;47.00
65394;BME280;52002;49.760;6.512;2023-03-18T11:48:00;99587.30;;;20.16;46.91
65394;BME280;52002;49.760;6.512;2023-03-18T11:50:50;99585.92;;;20.16;46.88
65394;BME280;52002;49.760;6.512;2023-03-18T11:53:37;99581.39;;;20.15;47.10
65394;BME280;52002;49.760;6.512;2023-03-18T11:56:19;99577.89;;;20.14;46.94
65394;BME280;52002;49.760;6.512;2023-03-18T12:01:48;99577.57;;;20.12;46.98
65394;BME280;52002;49.760;6.512;2023-03-18T12:04:31;99574.23;;;20.13;47.02
65394;BME280;52002;49.760;6.512;2023-03-18T12:15:07;99543.36;;;20.15;47.06
65394;BME280;52002;49.760;6.512;2023-03-18T12:26:02;99549.13;;;20.19;46.87
65394;BME280;52002;49.760;6.512;2023-03-18T12:31:48;99550.86;;;20.19;46.80
65394;BME280;52002;49.760;6.512;2023-03-18T12:37:22;99556.79;;;20.20;46.82
65394;BME280;52002;49.760;6.512;2023-03-18T12:45:29;99557.75;;;20.17;46.79
65394;BME280;52002;49.760;6.512;2023-03-18T12:48:10;99555.50;;;20.17;46.82
65394;BME280;52002;49.760;6.512;2023-03-18T12:50:41;99553.02;;;20.16;46.65
65394;BME280;52002;49.760;6.512;2023-03-18T12:53:20;99541.52;;;20.16;46.68
65394;BME280;52002;49.760;6.512;2023-03-18T12:55:53;99538.40;;;20.15;46.81
65394;BME280;52002;49.760;6.512;2023-03-18T13:04:01;99530.88;;;20.13;46.94
65394;BME280;52002;49.760;6.512;2023-03-18T13:06:45;99526.21;;;20.13;46.94
65394;BME280;52002;49.760;6.512;2023-03-18T13:09:34;99530.91;;;20.16;46.88
65394;BME280;52002;49.760;6.512;2023-03-18T13:17:42;99524.77;;;20.23;46.61
65394;BME280;52002;49.760;6.512;2023-03-18T13:20:24;99529.81;;;20.24;46.61
65394;BME280;52002;49.760;6.512;2023-03-18T13:23:01;99528.21;;;20.25;46.94
65394;BME280;52002;49.760;6.512;2023-03-18T13:33:43;99527.17;;;20.27;46.87
65394;BME280;52002;49.760;6.512;2023-03-18T13:39:14;99516.33;;;20.26;46.83
65394;BME280;52002;49.760;6.512;2023-03-18T13:44:46;99517.86;;;20.25;46.90
65394;BME280;52002;49.760;6.512;2023-03-18T13:47:19;99511.74;;;20.24;46.66
65394;BME280;52002;49.760;6.512;2023-03-18T13:49:46;99513.63;;;20.22;46.78
65394;BME280;52002;49.760;6.512;2023-03-18T13:52:39;99518.09;;;20.18;46.72
65394;BME280;52002;49.760;6.512;2023-03-18T14:00:43;99515.08;;;20.11;46.67
65394;BME280;52002;49.760;6.512;2023-03-18T14:03:20;99517.29;;;20.10;46.75
65394;BME280;52002;49.760;6.512;2023-03-18T14:13:53;99505.69;;;20.08;46.80
65394;BME280;52002;49.760;6.512;2023-03-18T14:21:50;99499.32;;;20.11;46.77
65394;BME280;52002;49.760;6.512;2023-03-18T14:29:25;99493.69;;;20.13;46.75
65394;BME280;52002;49.760;6.512;2023-03-18T14:31:56;99492.94;;;20.13;46.81
65394;BME280;52002;49.760;6.512;2023-03-18T14:34:28;99490.48;;;20.13;46.76
65394;BME280;52002;49.760;6.512;2023-03-18T14:39:41;99486.67;;;20.13;46.80
65394;BME280;52002;49.760;6.512;2023-03-18T14:42:34;99487.15;;;20.12;46.77
65394;BME280;52002;49.760;6.512;2023-03-18T14:45:05;99489.92;;;20.11;46.74
65394;BME280;52002;49.760;6.512;2023-03-18T14:47:44;99492.36;;;20.12;46.73
65394;BME280;52002;49.760;6.512;2023-03-18T14:50:34;99488.48;;;20.11;46.82
65394;BME280;52002;49.760;6.512;2023-03-18T14:55:48;99487.40;;;20.09;46.91
65394;BME280;52002;49.760;6.512;2023-03-18T14:58:18;99484.23;;;20.08;46.85
65394;BME280;52002;49.760;6.512;2023-03-18T15:00:46;99480.52;;;20.08;46.87
65394;BME280;52002;49.760;6.512;2023-03-18T15:03:20;99478.40;;;20.07;46.76
65394;BME280;52002;49.760;6.512;2023-03-18T15:05:47;99475.18;;;20.07;46.92
65394;BME280;52002;49.760;6.512;2023-03-18T15:08:15;99474.57;;;20.06;46.78
65394;BME280;52002;49.760;6.512;2023-03-18T15:10:45;99477.48;;;20.06;46.92
65394;BME280;52002;49.760;6.512;2023-03-18T15:13:14;99478.73;;;20.06;46.81
65394;BME280;52002;49.760;6.512;2023-03-18T15:15:41;99478.65;;;20.07;46.90
65394;BME280;52002;49.760;6.512;2023-03-18T15:18:42;99481.27;;;20.09;46.82
65394;BME280;52002;49.760;6.512;2023-03-18T15:21:09;99474.30;;;20.11;46.83